sensor_id;sensor_type;location;lat;lon;timestamp;temperature;humidity
15105;DHT22;7653;48.994;9.212;2022-11-20T00:01:50;4.80;91.40
15105;DHT22;7653;48.994;9.212;2022-11-20T00:04:16;4.90;91.50
15105;DHT22;7653;48.994;9.212;2022-11-20T00:06:41;4.80;91.60
15105;DHT22;7653;48.994;9.212;2022-11-20T00:09:09;4.80;91.70
15105;DHT22;7653;48.994;9.212;2022-11-20T00:11:35;4.80;92.60
15105;DHT22;7653;48.994;9.212;2022-11-20T00:14:02;4.80;92.80
15105;DHT22;7653;48.994;9.212;2022-11-20T00:16:29;4.80;93.00
15105;DHT22;7653;48.994;9.212;2022-11-20T00:18:56;4.80;93.60
15105;DHT22;7653;48.994;9.212;2022-11-20T00:21:24;4.80;94.00
15105;DHT22;7653;48.994;9.212;2022-11-20T00:23:51;4.70;94.30
15105;DHT22;7653;48.994;9.212;2022-11-20T00:26:19;4.80;94.70
15105;DHT22;7653;48.994;9.212;2022-11-20T00:28:56;4.80;93.90
15105;DHT22;7653;48.994;9.212;2022-11-20T00:31:23;4.70;94.40
15105;DHT22;7653;48.994;9.212;2022-11-20T00:33:51;4.80;94.90
15105;DHT22;7653;48.994;9.212;2022-11-20T00:36:19;4.80;94.80
15105;DHT22;7653;48.994;9.212;2022-11-20T00:38:45;4.90;95.30
15105;DHT22;7653;48.994;9.212;2022-11-20T00:41:13;4.90;94.70
15105;DHT22;7653;48.994;9.212;2022-11-20T00:43:40;4.90;94.80
15105;DHT22;7653;48.994;9.212;2022-11-20T00:46:16;4.90;94.70
15105;DHT22;7653;48.994;9.212;2022-11-20T00:48:42;4.80;94.60
15105;DHT22;7653;48.994;9.212;2022-11-20T00:51:08;4.90;95.30
15105;DHT22;7653;48.994;9.212;2022-11-20T00:53:34;4.90;95.30
15105;DHT22;7653;48.994;9.212;2022-11-20T00:56:05;4.90;95.40
15105;DHT22;7653;48.994;9.212;2022-11-20T00:58:36;5.00;95.40
15105;DHT22;7653;48.994;9.212;2022-11-20T01:01:03;4.90;95.40
15105;DHT22;7653;48.994;9.212;2022-11-20T01:03:35;5.00;95.50
15105;DHT22;7653;48.994;9.212;2022-11-20T01:08:37;5.00;96.00
15105;DHT22;7653;48.994;9.212;2022-11-20T01:11:06;4.90;96.10
15105;DHT22;7653;48.994;9.212;2022-11-20T01:13:33;5.00;96.40
15105;DHT22;7653;48.994;9.212;2022-11-20T01:19:27;5.10;95.70
15105;DHT22;7653;48.994;9.212;2022-11-20T01:21:53;5.10;95.50
15105;DHT22;7653;48.994;9.212;2022-11-20T01:24:20;5.10;95.50
15105;DHT22;7653;48.994;9.212;2022-11-20T01:26:49;5.10;95.50
15105;DHT22;7653;48.994;9.212;2022-11-20T01:29:21;5.10;95.70
15105;DHT22;7653;48.994;9.212;2022-11-20T01:31:47;5.00;95.40
15105;DHT22;7653;48.994;9.212;2022-11-20T01:34:15;5.10;96.20
15105;DHT22;7653;48.994;9.212;2022-11-20T01:36:42;5.10;96.80
15105;DHT22;7653;48.994;9.212;2022-11-20T01:39:18;5.10;96.80
15105;DHT22;7653;48.994;9.212;2022-11-20T01:41:45;5.10;96.50
15105;DHT22;7653;48.994;9.212;2022-11-20T01:47:51;5.10;96.80
15105;DHT22;7653;48.994;9.212;2022-11-20T01:50:24;5.10;96.70
15105;DHT22;7653;48.994;9.212;2022-11-20T01:53:03;5.10;96.80
15105;DHT22;7653;48.994;9.212;2022-11-20T01:55:41;5.10;97.00
15105;DHT22;7653;48.994;9.212;2022-11-20T01:58:08;5.10;97.40
15105;DHT22;7653;48.994;9.212;2022-11-20T02:00:54;5.30;97.40
15105;DHT22;7653;48.994;9.212;2022-11-20T02:03:45;5.40;97.10
15105;DHT22;7653;48.994;9.212;2022-11-20T02:06:50;5.30;96.60
15105;DHT22;7653;48.994;9.212;2022-11-20T02:09:16;5.40;96.20
15105;DHT22;7653;48.994;9.212;2022-11-20T02:11:44;5.40;95.90
15105;DHT22;7653;48.994;9.212;2022-11-20T02:14:10;5.30;95.70
15105;DHT22;7653;48.994;9.212;2022-11-20T02:16:46;5.40;96.20
15105;DHT22;7653;48.994;9.212;2022-11-20T02:22:05;5.40;95.80
15105;DHT22;7653;48.994;9.212;2022-11-20T02:24:33;5.50;95.90
15105;DHT22;7653;48.994;9.212;2022-11-20T02:27:09;5.30;95.50
15105;DHT22;7653;48.994;9.212;2022-11-20T02:30:02;5.40;95.60
15105;DHT22;7653;48.994;9.212;2022-11-20T02:32:31;5.40;95.70
15105;DHT22;7653;48.994;9.212;2022-11-20T02:34:58;5.40;95.60
15105;DHT22;7653;48.994;9.212;2022-11-20T02:37:30;5.30;95.50
15105;DHT22;7653;48.994;9.212;2022-11-20T02:39:57;5.30;95.60
15105;DHT22;7653;48.994;9.212;2022-11-20T02:42:23;5.20;96.00
15105;DHT22;7653;48.994;9.212;2022-11-20T02:44:49;5.30;96.60
15105;DHT22;7653;48.994;9.212;2022-11-20T02:47:14;5.40;96.90
15105;DHT22;7653;48.994;9.212;2022-11-20T02:49:40;5.40;96.90
15105;DHT22;7653;48.994;9.212;2022-11-20T02:52:06;5.40;96.80
15105;DHT22;7653;48.994;9.212;2022-11-20T02:54:31;5.40;97.00
15105;DHT22;7653;48.994;9.212;2022-11-20T02:56:57;5.50;96.90
15105;DHT22;7653;48.994;9.212;2022-11-20T02:59:22;5.50;96.90
15105;DHT22;7653;48.994;9.212;2022-11-20T03:01:48;5.50;96.90
15105;DHT22;7653;48.994;9.212;2022-11-20T03:04:14;5.60;96.70
15105;DHT22;7653;48.994;9.212;2022-11-20T03:06:39;5.50;96.50
15105;DHT22;7653;48.994;9.212;2022-11-20T03:09:06;5.60;96.50
15105;DHT22;7653;48.994;9.212;2022-11-20T03:11:32;5.60;96.60
15105;DHT22;7653;48.994;9.212;2022-11-20T03:14:02;5.50;96.30
15105;DHT22;7653;48.994;9.212;2022-11-20T03:16:28;5.70;96.70
15105;DHT22;7653;48.994;9.212;2022-11-20T03:18:54;5.70;96.30
15105;DHT22;7653;48.994;9.212;2022-11-20T03:21:20;5.70;96.00
15105;DHT22;7653;48.994;9.212;2022-11-20T03:23:46;5.60;95.70
15105;DHT22;7653;48.994;9.212;2022-11-20T03:26:21;5.60;96.10
15105;DHT22;7653;48.994;9.212;2022-11-20T03:29:05;5.70;95.80
15105;DHT22;7653;48.994;9.212;2022-11-20T03:31:36;5.70;95.90
15105;DHT22;7653;48.994;9.212;2022-11-20T03:34:03;5.80;96.40
15105;DHT22;7653;48.994;9.212;2022-11-20T03:36:29;5.70;95.70
15105;DHT22;7653;48.994;9.212;2022-11-20T03:38:56;5.80;96.10
15105;DHT22;7653;48.994;9.212;2022-11-20T03:41:25;5.90;95.80
15105;DHT22;7653;48.994;9.212;2022-11-20T03:44:02;5.70;95.40
15105;DHT22;7653;48.994;9.212;2022-11-20T03:46:28;5.60;95.60
15105;DHT22;7653;48.994;9.212;2022-11-20T03:48:54;5.50;96.00
15105;DHT22;7653;48.994;9.212;2022-11-20T03:51:28;5.60;96.70
15105;DHT22;7653;48.994;9.212;2022-11-20T03:53:56;5.80;96.70
15105;DHT22;7653;48.994;9.212;2022-11-20T03:56:24;5.80;96.30
15105;DHT22;7653;48.994;9.212;2022-11-20T03:58:50;5.70;96.20
15105;DHT22;7653;48.994;9.212;2022-11-20T04:01:18;5.60;96.40
15105;DHT22;7653;48.994;9.212;2022-11-20T04:03:45;5.50;96.70
15105;DHT22;7653;48.994;9.212;2022-11-20T04:06:13;5.40;96.90
15105;DHT22;7653;48.994;9.212;2022-11-20T04:08:40;5.50;97.70
15105;DHT22;7653;48.994;9.212;2022-11-20T04:13:35;5.60;97.90
15105;DHT22;7653;48.994;9.212;2022-11-20T04:16:02;5.60;97.90
15105;DHT22;7653;48.994;9.212;2022-11-20T04:18:31;5.70;98.20
15105;DHT22;7653;48.994;9.212;2022-11-20T04:21:00;5.80;98.30
15105;DHT22;7653;48.994;9.212;2022-11-20T04:23:26;5.80;98.00
15105;DHT22;7653;48.994;9.212;2022-11-20T04:25:52;5.80;98.00
15105;DHT22;7653;48.994;9.212;2022-11-20T04:28:17;5.90;97.60
15105;DHT22;7653;48.994;9.212;2022-11-20T04:37:40;5.90;95.80
15105;DHT22;7653;48.994;9.212;2022-11-20T04:40:11;5.90;95.10
15105;DHT22;7653;48.994;9.212;2022-11-20T04:53:08;5.70;93.80
15105;DHT22;7653;48.994;9.212;2022-11-20T04:55:34;5.80;93.80
15105;DHT22;7653;48.994;9.212;2022-11-20T04:57:59;5.90;93.70
15105;DHT22;7653;48.994;9.212;2022-11-20T05:00:26;5.90;93.40
15105;DHT22;7653;48.994;9.212;2022-11-20T05:02:51;5.90;93.50
15105;DHT22;7653;48.994;9.212;2022-11-20T05:05:18;6.00;93.00
15105;DHT22;7653;48.994;9.212;2022-11-20T05:07:43;6.00;92.60
15105;DHT22;7653;48.994;9.212;2022-11-20T05:10:09;5.90;92.90
15105;DHT22;7653;48.994;9.212;2022-11-20T05:12:35;5.90;93.10
15105;DHT22;7653;48.994;9.212;2022-11-20T05:15:22;5.80;93.40
15105;DHT22;7653;48.994;9.212;2022-11-20T05:17:55;5.80;93.90
15105;DHT22;7653;48.994;9.212;2022-11-20T05:20:21;5.90;94.20
15105;DHT22;7653;48.994;9.212;2022-11-20T05:22:47;5.90;94.00
15105;DHT22;7653;48.994;9.212;2022-11-20T05:25:12;5.90;94.20
15105;DHT22;7653;48.994;9.212;2022-11-20T05:27:38;5.80;94.90
15105;DHT22;7653;48.994;9.212;2022-11-20T05:30:14;5.80;95.70
15105;DHT22;7653;48.994;9.212;2022-11-20T05:32:40;5.80;95.70
15105;DHT22;7653;48.994;9.212;2022-11-20T05:48:18;5.90;94.50
15105;DHT22;7653;48.994;9.212;2022-11-20T05:51:32;5.90;94.00
15105;DHT22;7653;48.994;9.212;2022-11-20T06:00:19;5.90;94.20
15105;DHT22;7653;48.994;9.212;2022-11-20T06:02:48;5.90;94.20
15105;DHT22;7653;48.994;9.212;2022-11-20T06:05:15;5.90;94.00
15105;DHT22;7653;48.994;9.212;2022-11-20T06:07:41;5.90;94.00
15105;DHT22;7653;48.994;9.212;2022-11-20T06:10:06;6.00;94.00
15105;DHT22;7653;48.994;9.212;2022-11-20T06:13:08;6.00;94.00
15105;DHT22;7653;48.994;9.212;2022-11-20T06:16:14;5.90;93.90
15105;DHT22;7653;48.994;9.212;2022-11-20T06:18:58;5.90;93.60
15105;DHT22;7653;48.994;9.212;2022-11-20T06:21:24;5.90;93.60
15105;DHT22;7653;48.994;9.212;2022-11-20T06:23:52;5.90;93.40
15105;DHT22;7653;48.994;9.212;2022-11-20T06:26:20;5.90;93.40
15105;DHT22;7653;48.994;9.212;2022-11-20T06:28:46;5.90;93.60
15105;DHT22;7653;48.994;9.212;2022-11-20T06:31:15;5.90;93.50
15105;DHT22;7653;48.994;9.212;2022-11-20T06:33:41;5.90;93.20
15105;DHT22;7653;48.994;9.212;2022-11-20T06:36:07;6.00;92.90
15105;DHT22;7653;48.994;9.212;2022-11-20T06:38:34;6.00;92.50
15105;DHT22;7653;48.994;9.212;2022-11-20T06:41:00;6.00;92.40
15105;DHT22;7653;48.994;9.212;2022-11-20T06:43:26;6.00;92.30
15105;DHT22;7653;48.994;9.212;2022-11-20T06:46:01;5.90;92.30
15105;DHT22;7653;48.994;9.212;2022-11-20T06:49:03;6.00;92.30
15105;DHT22;7653;48.994;9.212;2022-11-20T06:58:53;6.00;91.10
15105;DHT22;7653;48.994;9.212;2022-11-20T07:01:48;6.10;90.40
15105;DHT22;7653;48.994;9.212;2022-11-20T07:04:14;6.10;90.30
15105;DHT22;7653;48.994;9.212;2022-11-20T07:06:39;6.10;90.70
15105;DHT22;7653;48.994;9.212;2022-11-20T07:09:05;6.10;91.50
15105;DHT22;7653;48.994;9.212;2022-11-20T07:11:31;6.10;91.90
15105;DHT22;7653;48.994;9.212;2022-11-20T07:13:57;6.10;91.90
15105;DHT22;7653;48.994;9.212;2022-11-20T07:16:22;6.20;92.00
15105;DHT22;7653;48.994;9.212;2022-11-20T07:18:50;6.10;91.40
15105;DHT22;7653;48.994;9.212;2022-11-20T07:21:16;6.10;91.40
15105;DHT22;7653;48.994;9.212;2022-11-20T07:23:42;6.10;91.90
15105;DHT22;7653;48.994;9.212;2022-11-20T07:26:10;6.10;91.90
15105;DHT22;7653;48.994;9.212;2022-11-20T07:28:36;6.00;92.80
15105;DHT22;7653;48.994;9.212;2022-11-20T07:31:02;6.00;92.70
15105;DHT22;7653;48.994;9.212;2022-11-20T07:33:29;6.00;93.10
15105;DHT22;7653;48.994;9.212;2022-11-20T07:35:54;6.00;93.50
15105;DHT22;7653;48.994;9.212;2022-11-20T07:38:20;6.00;93.80
15105;DHT22;7653;48.994;9.212;2022-11-20T07:40:47;6.00;94.20
15105;DHT22;7653;48.994;9.212;2022-11-20T07:43:20;6.10;94.30
15105;DHT22;7653;48.994;9.212;2022-11-20T07:45:45;6.10;94.50
15105;DHT22;7653;48.994;9.212;2022-11-20T07:48:11;6.10;94.80
15105;DHT22;7653;48.994;9.212;2022-11-20T07:50:37;6.10;94.80
15105;DHT22;7653;48.994;9.212;2022-11-20T07:53:04;6.00;95.00
15105;DHT22;7653;48.994;9.212;2022-11-20T07:55:30;6.10;95.00
15105;DHT22;7653;48.994;9.212;2022-11-20T07:57:57;6.10;95.00
15105;DHT22;7653;48.994;9.212;2022-11-20T08:00:28;6.20;95.00
15105;DHT22;7653;48.994;9.212;2022-11-20T09:07:48;7.00;91.80
15105;DHT22;7653;48.994;9.212;2022-11-20T09:10:18;7.00;92.30
15105;DHT22;7653;48.994;9.212;2022-11-20T10:23:42;7.50;80.50
15105;DHT22;7653;48.994;9.212;2022-11-20T10:26:28;7.50;80.80
15105;DHT22;7653;48.994;9.212;2022-11-20T10:31:54;7.60;81.50
15105;DHT22;7653;48.994;9.212;2022-11-20T10:34:31;7.60;81.20
15105;DHT22;7653;48.994;9.212;2022-11-20T10:37:09;7.50;82.50
15105;DHT22;7653;48.994;9.212;2022-11-20T10:45:13;7.60;82.60
15105;DHT22;7653;48.994;9.212;2022-11-20T10:47:40;7.60;77.70
15105;DHT22;7653;48.994;9.212;2022-11-20T10:50:11;7.80;77.60
15105;DHT22;7653;48.994;9.212;2022-11-20T10:55:27;7.80;72.80
15105;DHT22;7653;48.994;9.212;2022-11-20T10:57:58;7.90;74.50
15105;DHT22;7653;48.994;9.212;2022-11-20T11:00:30;8.00;73.30
15105;DHT22;7653;48.994;9.212;2022-11-20T11:03:07;7.90;72.20
15105;DHT22;7653;48.994;9.212;2022-11-20T11:05:58;7.80;74.30
15105;DHT22;7653;48.994;9.212;2022-11-20T11:08:32;7.80;75.90
15105;DHT22;7653;48.994;9.212;2022-11-20T11:11:07;7.80;73.70
15105;DHT22;7653;48.994;9.212;2022-11-20T11:13:35;7.80;75.60
15105;DHT22;7653;48.994;9.212;2022-11-20T11:16:03;7.70;75.50
15105;DHT22;7653;48.994;9.212;2022-11-20T11:18:33;7.60;77.70
15105;DHT22;7653;48.994;9.212;2022-11-20T11:21:23;7.60;77.30
15105;DHT22;7653;48.994;9.212;2022-11-20T11:24:03;7.60;77.80
15105;DHT22;7653;48.994;9.212;2022-11-20T11:26:30;7.60;79.50
15105;DHT22;7653;48.994;9.212;2022-11-20T11:28:59;7.70;82.00
15105;DHT22;7653;48.994;9.212;2022-11-20T11:31:27;7.70;79.40
15105;DHT22;7653;48.994;9.212;2022-11-20T11:34:07;7.90;80.60
15105;DHT22;7653;48.994;9.212;2022-11-20T11:39:30;8.10;78.20
15105;DHT22;7653;48.994;9.212;2022-11-20T11:42:01;8.20;74.50
15105;DHT22;7653;48.994;9.212;2022-11-20T11:44:32;8.10;70.80
15105;DHT22;7653;48.994;9.212;2022-11-20T11:47:26;8.20;73.10
15105;DHT22;7653;48.994;9.212;2022-11-20T12:04:23;8.50;69.20
15105;DHT22;7653;48.994;9.212;2022-11-20T12:07:12;8.40;63.30
15105;DHT22;7653;48.994;9.212;2022-11-20T12:09:43;8.50;62.00
15105;DHT22;7653;48.994;9.212;2022-11-20T12:12:19;8.50;57.50
15105;DHT22;7653;48.994;9.212;2022-11-20T12:14:47;8.70;60.30
15105;DHT22;7653;48.994;9.212;2022-11-20T12:17:18;9.00;57.30
15105;DHT22;7653;48.994;9.212;2022-11-20T12:19:45;9.20;52.90
15105;DHT22;7653;48.994;9.212;2022-11-20T12:22:31;9.30;52.20
15105;DHT22;7653;48.994;9.212;2022-11-20T12:25:28;9.00;49.80
15105;DHT22;7653;48.994;9.212;2022-11-20T14:04:23;8.70;46.40
